sensor_id;sensor_type;location;lat;lon;timestamp;P1;P2;P0
74086;PMS7003;62445;48.406;-4.518;2023-08-06T00:01:47;4.75;4.00;3.00
74086;PMS7003;62445;48.406;-4.518;2023-08-06T00:04:13;5.50;4.75;3.50
74086;PMS7003;62445;48.406;-4.518;2023-08-06T00:06:38;5.00;4.00;3.00
74086;PMS7003;62445;48.406;-4.518;2023-08-06T00:09:04;4.00;3.00;2.75
74086;PMS7003;62445;48.406;-4.518;2023-08-06T00:11:29;4.25;3.25;2.25
74086;PMS7003;62445;48.406;-4.518;2023-08-06T00:13:54;4.00;3.50;2.50
74086;PMS7003;62445;48.406;-4.518;2023-08-06T00:16:20;3.50;3.50;3.25
74086;PMS7003;62445;48.406;-4.518;2023-08-06T00:18:45;3.00;3.00;2.25
74086;PMS7003;62445;48.406;-4.518;2023-08-06T00:21:11;5.75;4.00;3.75
74086;PMS7003;62445;48.406;-4.518;2023-08-06T00:23:37;3.75;3.50;3.00
74086;PMS7003;62445;48.406;-4.518;2023-08-06T00:26:03;3.25;3.25;2.25
74086;PMS7003;62445;48.406;-4.518;2023-08-06T00:28:28;5.00;3.00;2.00
74086;PMS7003;62445;48.406;-4.518;2023-08-06T00:30:56;5.75;4.00;3.00
74086;PMS7003;62445;48.406;-4.518;2023-08-06T00:33:22;2.75;2.75;2.50
74086;PMS7003;62445;48.406;-4.518;2023-08-06T00:35:48;4.00;4.00;3.00
74086;PMS7003;62445;48.406;-4.518;2023-08-06T00:38:13;3.25;3.25;2.25
74086;PMS7003;62445;48.406;-4.518;2023-08-06T00:40:39;4.50;3.75;2.00
74086;PMS7003;62445;48.406;-4.518;2023-08-06T00:43:04;3.75;3.25;2.00
74086;PMS7003;62445;48.406;-4.518;2023-08-06T00:45:30;3.75;3.00;2.50
74086;PMS7003;62445;48.406;-4.518;2023-08-06T00:48:00;2.25;2.25;2.00
74086;PMS7003;62445;48.406;-4.518;2023-08-06T00:50:26;2.75;2.75;2.25
74086;PMS7003;62445;48.406;-4.518;2023-08-06T00:52:52;3.50;3.50;2.25
74086;PMS7003;62445;48.406;-4.518;2023-08-06T00:55:18;4.25;3.00;2.25
74086;PMS7003;62445;48.406;-4.518;2023-08-06T00:57:43;4.25;2.00;1.25
74086;PMS7003;62445;48.406;-4.518;2023-08-06T01:00:09;2.50;2.50;2.25
74086;PMS7003;62445;48.406;-4.518;2023-08-06T01:02:35;3.00;3.00;2.00
74086;PMS7003;62445;48.406;-4.518;2023-08-06T01:05:02;2.75;1.75;1.25
74086;PMS7003;62445;48.406;-4.518;2023-08-06T01:10:28;2.75;2.75;2.00
74086;PMS7003;62445;48.406;-4.518;2023-08-06T01:13:11;2.75;2.75;2.75
74086;PMS7003;62445;48.406;-4.518;2023-08-06T01:15:54;4.75;3.75;2.75
74086;PMS7003;62445;48.406;-4.518;2023-08-06T01:18:24;2.75;2.75;2.00
74086;PMS7003;62445;48.406;-4.518;2023-08-06T01:20:50;4.00;2.50;2.00
74086;PMS7003;62445;48.406;-4.518;2023-08-06T01:23:15;2.00;2.00;1.25
74086;PMS7003;62445;48.406;-4.518;2023-08-06T01:28:40;4.25;4.25;3.00
74086;PMS7003;62445;48.406;-4.518;2023-08-06T01:31:18;3.00;3.00;3.00
74086;PMS7003;62445;48.406;-4.518;2023-08-06T01:34:07;5.25;3.00;2.00
74086;PMS7003;62445;48.406;-4.518;2023-08-06T01:36:38;3.00;2.50;2.00
74086;PMS7003;62445;48.406;-4.518;2023-08-06T01:39:04;2.25;2.00;2.00
74086;PMS7003;62445;48.406;-4.518;2023-08-06T01:41:30;3.00;2.25;2.00
74086;PMS7003;62445;48.406;-4.518;2023-08-06T01:43:55;3.25;2.50;2.00
74086;PMS7003;62445;48.406;-4.518;2023-08-06T01:46:20;2.00;2.00;2.00
74086;PMS7003;62445;48.406;-4.518;2023-08-06T01:48:46;2.50;2.50;2.50
74086;PMS7003;62445;48.406;-4.518;2023-08-06T01:51:11;2.00;2.00;2.00
74086;PMS7003;62445;48.406;-4.518;2023-08-06T01:53:37;2.00;2.00;2.00
74086;PMS7003;62445;48.406;-4.518;2023-08-06T01:56:02;2.00;2.00;1.25
74086;PMS7003;62445;48.406;-4.518;2023-08-06T01:58:28;1.00;1.00;1.00
74086;PMS7003;62445;48.406;-4.518;2023-08-06T02:00:53;3.25;2.00;1.25
74086;PMS7003;62445;48.406;-4.518;2023-08-06T02:03:18;3.00;1.25;1.00
74086;PMS7003;62445;48.406;-4.518;2023-08-06T02:05:44;4.00;2.00;1.00
74086;PMS7003;62445;48.406;-4.518;2023-08-06T02:08:10;2.00;2.00;2.00
74086;PMS7003;62445;48.406;-4.518;2023-08-06T02:10:36;2.00;2.00;1.25
74086;PMS7003;62445;48.406;-4.518;2023-08-06T02:13:01;2.00;2.00;2.00
74086;PMS7003;62445;48.406;-4.518;2023-08-06T02:15:26;2.00;2.00;1.00
74086;PMS7003;62445;48.406;-4.518;2023-08-06T02:17:52;2.25;2.00;2.00
74086;PMS7003;62445;48.406;-4.518;2023-08-06T02:20:17;1.00;1.00;1.00
74086;PMS7003;62445;48.406;-4.518;2023-08-06T02:22:43;2.50;1.50;1.25
74086;PMS7003;62445;48.406;-4.518;2023-08-06T02:25:08;4.00;3.00;2.00
74086;PMS7003;62445;48.406;-4.518;2023-08-06T02:27:33;1.75;1.00;1.00
74086;PMS7003;62445;48.406;-4.518;2023-08-06T02:29:59;1.75;1.75;1.25
74086;PMS7003;62445;48.406;-4.518;2023-08-06T02:32:24;2.00;2.00;1.75
74086;PMS7003;62445;48.406;-4.518;2023-08-06T02:34:50;2.00;2.00;1.50
74086;PMS7003;62445;48.406;-4.518;2023-08-06T02:37:15;2.00;2.00;1.00
74086;PMS7003;62445;48.406;-4.518;2023-08-06T02:39:41;2.00;2.00;2.00
74086;PMS7003;62445;48.406;-4.518;2023-08-06T02:42:07;2.75;2.75;2.00
74086;PMS7003;62445;48.406;-4.518;2023-08-06T02:44:33;4.00;2.75;2.00
74086;PMS7003;62445;48.406;-4.518;2023-08-06T02:46:59;3.00;2.00;1.50
74086;PMS7003;62445;48.406;-4.518;2023-08-06T02:49:24;2.00;2.00;2.00
74086;PMS7003;62445;48.406;-4.518;2023-08-06T02:51:50;2.00;2.00;1.25
74086;PMS7003;62445;48.406;-4.518;2023-08-06T02:54:15;1.00;1.00;1.00
74086;PMS7003;62445;48.406;-4.518;2023-08-06T02:56:44;1.00;1.00;1.00
74086;PMS7003;62445;48.406;-4.518;2023-08-06T02:59:11;2.75;2.75;1.75
74086;PMS7003;62445;48.406;-4.518;2023-08-06T03:01:37;1.75;1.75;1.00
74086;PMS7003;62445;48.406;-4.518;2023-08-06T03:04:02;2.00;2.00;1.75
74086;PMS7003;62445;48.406;-4.518;2023-08-06T03:06:28;3.00;1.00;1.00
74086;PMS7003;62445;48.406;-4.518;2023-08-06T03:08:53;2.50;2.50;2.00
74086;PMS7003;62445;48.406;-4.518;2023-08-06T03:11:19;2.00;2.00;2.00
74086;PMS7003;62445;48.406;-4.518;2023-08-06T03:13:44;1.25;1.25;1.00
74086;PMS7003;62445;48.406;-4.518;2023-08-06T03:16:10;1.50;1.00;1.00
74086;PMS7003;62445;48.406;-4.518;2023-08-06T03:18:35;2.75;2.00;1.25
74086;PMS7003;62445;48.406;-4.518;2023-08-06T03:21:01;1.00;1.00;0.25
74086;PMS7003;62445;48.406;-4.518;2023-08-06T03:23:27;1.50;1.00;1.00
74086;PMS7003;62445;48.406;-4.518;2023-08-06T03:25:52;3.00;2.00;1.00
74086;PMS7003;62445;48.406;-4.518;2023-08-06T03:28:17;1.00;1.00;1.00
74086;PMS7003;62445;48.406;-4.518;2023-08-06T03:30:43;0.50;0.50;0.50
74086;PMS7003;62445;48.406;-4.518;2023-08-06T03:33:08;6.00;2.00;1.00
74086;PMS7003;62445;48.406;-4.518;2023-08-06T03:35:35;1.25;1.00;1.00
74086;PMS7003;62445;48.406;-4.518;2023-08-06T03:38:00;1.00;1.00;0.75
74086;PMS7003;62445;48.406;-4.518;2023-08-06T03:40:26;2.00;1.25;1.00
74086;PMS7003;62445;48.406;-4.518;2023-08-06T03:42:51;1.50;1.50;1.00
74086;PMS7003;62445;48.406;-4.518;2023-08-06T03:45:17;1.50;1.00;1.00
74086;PMS7003;62445;48.406;-4.518;2023-08-06T03:47:42;3.00;2.00;2.00
74086;PMS7003;62445;48.406;-4.518;2023-08-06T03:50:08;2.50;2.00;1.25
74086;PMS7003;62445;48.406;-4.518;2023-08-06T03:52:33;2.50;1.75;1.75
74086;PMS7003;62445;48.406;-4.518;2023-08-06T03:54:59;1.00;1.00;1.00
74086;PMS7003;62445;48.406;-4.518;2023-08-06T03:57:24;1.00;1.00;1.00
74086;PMS7003;62445;48.406;-4.518;2023-08-06T03:59:50;1.00;1.00;1.00
74086;PMS7003;62445;48.406;-4.518;2023-08-06T04:02:15;1.00;1.00;1.00
74086;PMS7003;62445;48.406;-4.518;2023-08-06T04:04:40;1.00;1.00;0.75
74086;PMS7003;62445;48.406;-4.518;2023-08-06T04:07:06;2.00;2.00;1.00
74086;PMS7003;62445;48.406;-4.518;2023-08-06T04:09:31;2.75;1.50;1.25
74086;PMS7003;62445;48.406;-4.518;2023-08-06T04:11:57;2.00;1.00;1.00
74086;PMS7003;62445;48.406;-4.518;2023-08-06T04:14:23;1.00;1.00;0.75
74086;PMS7003;62445;48.406;-4.518;2023-08-06T04:16:49;1.50;1.50;1.00
74086;PMS7003;62445;48.406;-4.518;2023-08-06T04:19:14;1.00;1.00;1.00
74086;PMS7003;62445;48.406;-4.518;2023-08-06T04:21:40;2.00;1.00;0.75
74086;PMS7003;62445;48.406;-4.518;2023-08-06T04:24:05;1.00;1.00;1.00
74086;PMS7003;62445;48.406;-4.518;2023-08-06T04:26:30;1.00;1.00;0.50
74086;PMS7003;62445;48.406;-4.518;2023-08-06T04:28:56;1.25;1.25;1.00
74086;PMS7003;62445;48.406;-4.518;2023-08-06T04:31:21;0.75;0.75;0.50
74086;PMS7003;62445;48.406;-4.518;2023-08-06T04:33:48;3.25;2.00;2.00
74086;PMS7003;62445;48.406;-4.518;2023-08-06T04:36:13;1.75;1.00;1.00
74086;PMS7003;62445;48.406;-4.518;2023-08-06T04:38:39;1.00;1.00;1.00
74086;PMS7003;62445;48.406;-4.518;2023-08-06T04:41:06;2.00;1.50;1.00
74086;PMS7003;62445;48.406;-4.518;2023-08-06T04:43:31;1.00;1.00;1.00
74086;PMS7003;62445;48.406;-4.518;2023-08-06T04:45:57;1.25;0.75;0.25
74086;PMS7003;62445;48.406;-4.518;2023-08-06T04:48:22;2.00;1.00;0.25
74086;PMS7003;62445;48.406;-4.518;2023-08-06T04:50:48;0.50;0.50;0.25
74086;PMS7003;62445;48.406;-4.518;2023-08-06T04:53:15;0.00;0.00;0.00
74086;PMS7003;62445;48.406;-4.518;2023-08-06T04:55:41;2.00;1.00;1.00
74086;PMS7003;62445;48.406;-4.518;2023-08-06T04:58:08;0.75;0.75;0.50
74086;PMS7003;62445;48.406;-4.518;2023-08-06T05:00:35;1.00;1.00;0.50
74086;PMS7003;62445;48.406;-4.518;2023-08-06T05:03:00;1.00;1.00;1.00
74086;PMS7003;62445;48.406;-4.518;2023-08-06T05:05:26;1.00;1.00;1.00
74086;PMS7003;62445;48.406;-4.518;2023-08-06T05:07:54;1.00;1.00;0.75
74086;PMS7003;62445;48.406;-4.518;2023-08-06T05:10:21;1.00;1.00;1.00
74086;PMS7003;62445;48.406;-4.518;2023-08-06T05:12:46;2.00;1.00;1.00
74086;PMS7003;62445;48.406;-4.518;2023-08-06T05:15:12;1.00;1.00;1.00
74086;PMS7003;62445;48.406;-4.518;2023-08-06T05:17:37;0.00;0.00;0.00
74086;PMS7003;62445;48.406;-4.518;2023-08-06T05:20:03;1.00;0.75;0.75
74086;PMS7003;62445;48.406;-4.518;2023-08-06T05:22:28;0.50;0.50;0.50
74086;PMS7003;62445;48.406;-4.518;2023-08-06T05:24:54;2.00;1.00;1.00
74086;PMS7003;62445;48.406;-4.518;2023-08-06T05:27:19;1.50;1.50;0.75
74086;PMS7003;62445;48.406;-4.518;2023-08-06T05:29:45;1.75;1.75;1.00
74086;PMS7003;62445;48.406;-4.518;2023-08-06T05:32:10;2.50;1.00;1.00
74086;PMS7003;62445;48.406;-4.518;2023-08-06T05:34:36;1.25;1.00;1.00
74086;PMS7003;62445;48.406;-4.518;2023-08-06T05:37:02;1.00;1.00;1.00
74086;PMS7003;62445;48.406;-4.518;2023-08-06T05:39:28;1.75;1.00;1.00
74086;PMS7003;62445;48.406;-4.518;2023-08-06T05:41:53;1.00;1.00;0.00
74086;PMS7003;62445;48.406;-4.518;2023-08-06T05:44:20;1.25;1.00;0.75
74086;PMS7003;62445;48.406;-4.518;2023-08-06T05:46:45;2.00;1.00;1.00
74086;PMS7003;62445;48.406;-4.518;2023-08-06T05:49:11;1.25;1.25;1.00
74086;PMS7003;62445;48.406;-4.518;2023-08-06T05:51:38;1.00;1.00;0.75
74086;PMS7003;62445;48.406;-4.518;2023-08-06T05:54:03;1.00;1.00;1.00
74086;PMS7003;62445;48.406;-4.518;2023-08-06T05:56:29;1.00;0.50;0.25
74086;PMS7003;62445;48.406;-4.518;2023-08-06T05:58:54;1.00;1.00;1.00
74086;PMS7003;62445;48.406;-4.518;2023-08-06T06:01:19;0.75;0.75;0.50
74086;PMS7003;62445;48.406;-4.518;2023-08-06T06:03:45;0.25;0.25;0.00
74086;PMS7003;62445;48.406;-4.518;2023-08-06T06:06:10;1.50;1.00;1.00
74086;PMS7003;62445;48.406;-4.518;2023-08-06T06:08:36;1.00;1.00;1.00
74086;PMS7003;62445;48.406;-4.518;2023-08-06T06:11:01;1.00;1.00;1.00
74086;PMS7003;62445;48.406;-4.518;2023-08-06T06:13:26;2.00;2.00;1.00
74086;PMS7003;62445;48.406;-4.518;2023-08-06T06:15:55;1.00;1.00;1.00
74086;PMS7003;62445;48.406;-4.518;2023-08-06T06:18:21;0.00;0.00;0.00
74086;PMS7003;62445;48.406;-4.518;2023-08-06T06:20:47;1.25;0.00;0.00
74086;PMS7003;62445;48.406;-4.518;2023-08-06T06:23:12;1.00;1.00;1.00
74086;PMS7003;62445;48.406;-4.518;2023-08-06T06:25:41;1.00;1.00;0.75
74086;PMS7003;62445;48.406;-4.518;2023-08-06T06:28:08;1.00;1.00;1.00
74086;PMS7003;62445;48.406;-4.518;2023-08-06T06:30:34;2.00;1.25;1.00
74086;PMS7003;62445;48.406;-4.518;2023-08-06T06:32:59;0.00;0.00;0.00
74086;PMS7003;62445;48.406;-4.518;2023-08-06T06:35:25;1.75;1.75;1.00
74086;PMS7003;62445;48.406;-4.518;2023-08-06T06:37:50;1.50;0.00;0.00
74086;PMS7003;62445;48.406;-4.518;2023-08-06T06:40:16;3.00;0.25;0.00
74086;PMS7003;62445;48.406;-4.518;2023-08-06T06:42:42;1.00;0.00;0.00
74086;PMS7003;62445;48.406;-4.518;2023-08-06T06:45:07;2.00;2.00;1.75
74086;PMS7003;62445;48.406;-4.518;2023-08-06T06:47:33;2.50;1.00;1.00
74086;PMS7003;62445;48.406;-4.518;2023-08-06T06:49:59;0.25;0.25;0.00
74086;PMS7003;62445;48.406;-4.518;2023-08-06T06:52:24;2.00;0.25;0.00
74086;PMS7003;62445;48.406;-4.518;2023-08-06T06:54:49;1.25;0.50;0.00
74086;PMS7003;62445;48.406;-4.518;2023-08-06T06:57:15;1.00;0.75;0.00
74086;PMS7003;62445;48.406;-4.518;2023-08-06T06:59:40;1.75;1.00;1.00
74086;PMS7003;62445;48.406;-4.518;2023-08-06T07:02:06;1.00;0.00;0.00
74086;PMS7003;62445;48.406;-4.518;2023-08-06T07:04:31;1.00;0.00;0.00
74086;PMS7003;62445;48.406;-4.518;2023-08-06T07:06:57;4.00;0.00;0.00
74086;PMS7003;62445;48.406;-4.518;2023-08-06T07:09:22;1.25;1.00;0.50
74086;PMS7003;62445;48.406;-4.518;2023-08-06T07:11:48;0.50;0.50;0.00
74086;PMS7003;62445;48.406;-4.518;2023-08-06T07:14:13;1.00;1.00;0.00
74086;PMS7003;62445;48.406;-4.518;2023-08-06T07:16:39;1.00;1.00;0.25
74086;PMS7003;62445;48.406;-4.518;2023-08-06T07:19:04;1.75;1.00;1.00
74086;PMS7003;62445;48.406;-4.518;2023-08-06T07:21:30;1.00;1.00;1.00
74086;PMS7003;62445;48.406;-4.518;2023-08-06T07:23:56;0.50;0.50;0.00
74086;PMS7003;62445;48.406;-4.518;2023-08-06T07:26:22;1.75;0.25;0.00
74086;PMS7003;62445;48.406;-4.518;2023-08-06T07:28:47;1.00;1.00;0.25
74086;PMS7003;62445;48.406;-4.518;2023-08-06T07:31:12;1.00;1.00;0.75
74086;PMS7003;62445;48.406;-4.518;2023-08-06T07:33:38;1.75;0.25;0.00
74086;PMS7003;62445;48.406;-4.518;2023-08-06T07:36:13;1.50;1.00;0.25
74086;PMS7003;62445;48.406;-4.518;2023-08-06T07:38:39;1.75;1.00;1.00
74086;PMS7003;62445;48.406;-4.518;2023-08-06T07:41:05;0.00;0.00;0.00
74086;PMS7003;62445;48.406;-4.518;2023-08-06T07:43:30;0.00;0.00;0.00
74086;PMS7003;62445;48.406;-4.518;2023-08-06T07:45:59;0.25;0.25;0.00
74086;PMS7003;62445;48.406;-4.518;2023-08-06T07:48:25;1.25;1.00;1.00
74086;PMS7003;62445;48.406;-4.518;2023-08-06T07:50:52;1.00;1.00;1.00
74086;PMS7003;62445;48.406;-4.518;2023-08-06T07:53:21;2.00;1.00;1.00
74086;PMS7003;62445;48.406;-4.518;2023-08-06T07:55:50;0.50;0.00;0.00
74086;PMS7003;62445;48.406;-4.518;2023-08-06T07:58:17;0.75;0.75;0.75
74086;PMS7003;62445;48.406;-4.518;2023-08-06T08:00:43;1.25;1.00;1.00
74086;PMS7003;62445;48.406;-4.518;2023-08-06T08:03:10;0.50;0.50;0.25
74086;PMS7003;62445;48.406;-4.518;2023-08-06T08:05:40;1.00;1.00;0.50
74086;PMS7003;62445;48.406;-4.518;2023-08-06T08:08:06;1.00;1.00;1.00
74086;PMS7003;62445;48.406;-4.518;2023-08-06T08:10:32;3.00;0.75;0.75
74086;PMS7003;62445;48.406;-4.518;2023-08-06T08:12:57;1.50;1.00;0.00
74086;PMS7003;62445;48.406;-4.518;2023-08-06T08:15:24;1.75;0.25;0.00
74086;PMS7003;62445;48.406;-4.518;2023-08-06T08:17:51;1.50;0.25;0.00
74086;PMS7003;62445;48.406;-4.518;2023-08-06T08:20:17;0.50;0.50;0.00
74086;PMS7003;62445;48.406;-4.518;2023-08-06T08:22:43;1.00;1.00;0.50
74086;PMS7003;62445;48.406;-4.518;2023-08-06T08:25:08;1.00;1.00;0.50
74086;PMS7003;62445;48.406;-4.518;2023-08-06T08:27:33;4.00;0.75;0.00
74086;PMS7003;62445;48.406;-4.518;2023-08-06T08:29:59;1.00;1.00;0.50
74086;PMS7003;62445;48.406;-4.518;2023-08-06T08:32:24;1.00;1.00;0.00
74086;PMS7003;62445;48.406;-4.518;2023-08-06T08:34:50;0.50;0.50;0.50
74086;PMS7003;62445;48.406;-4.518;2023-08-06T08:37:15;0.50;0.25;0.00
74086;PMS7003;62445;48.406;-4.518;2023-08-06T08:39:40;1.00;1.00;0.25
74086;PMS7003;62445;48.406;-4.518;2023-08-06T08:42:06;1.25;0.00;0.00
74086;PMS7003;62445;48.406;-4.518;2023-08-06T08:44:32;0.75;0.75;0.25
74086;PMS7003;62445;48.406;-4.518;2023-08-06T08:46:59;1.50;1.00;0.75
74086;PMS7003;62445;48.406;-4.518;2023-08-06T08:49:24;4.00;1.00;1.00
74086;PMS7003;62445;48.406;-4.518;2023-08-06T08:51:51;0.00;0.00;0.00
74086;PMS7003;62445;48.406;-4.518;2023-08-06T08:54:18;1.00;1.00;1.00
74086;PMS7003;62445;48.406;-4.518;2023-08-06T08:56:47;1.00;1.00;1.00
74086;PMS7003;62445;48.406;-4.518;2023-08-06T08:59:13;0.25;0.25;0.25
74086;PMS7003;62445;48.406;-4.518;2023-08-06T09:01:38;1.00;0.50;0.50
74086;PMS7003;62445;48.406;-4.518;2023-08-06T09:04:06;1.50;0.00;0.00
74086;PMS7003;62445;48.406;-4.518;2023-08-06T09:06:33;1.00;0.00;0.00
74086;PMS7003;62445;48.406;-4.518;2023-08-06T09:09:08;1.00;0.00;0.00
74086;PMS7003;62445;48.406;-4.518;2023-08-06T09:11:39;1.00;1.00;1.00
74086;PMS7003;62445;48.406;-4.518;2023-08-06T09:14:08;2.25;0.00;0.00
74086;PMS7003;62445;48.406;-4.518;2023-08-06T09:16:36;0.50;0.25;0.25
74086;PMS7003;62445;48.406;-4.518;2023-08-06T09:19:12;2.50;1.00;1.00
74086;PMS7003;62445;48.406;-4.518;2023-08-06T09:21:40;1.00;1.00;1.00
74086;PMS7003;62445;48.406;-4.518;2023-08-06T09:24:07;2.00;2.00;1.75
74086;PMS7003;62445;48.406;-4.518;2023-08-06T09:26:33;1.00;1.00;1.00
74086;PMS7003;62445;48.406;-4.518;2023-08-06T09:28:59;0.50;0.25;0.00
74086;PMS7003;62445;48.406;-4.518;2023-08-06T09:31:25;2.00;1.50;1.00
74086;PMS7003;62445;48.406;-4.518;2023-08-06T09:33:59;0.00;0.00;0.00
74086;PMS7003;62445;48.406;-4.518;2023-08-06T09:36:26;1.00;1.00;0.75
74086;PMS7003;62445;48.406;-4.518;2023-08-06T09:38:52;0.25;0.00;0.00
74086;PMS7003;62445;48.406;-4.518;2023-08-06T09:41:27;1.00;1.00;0.00
74086;PMS7003;62445;48.406;-4.518;2023-08-06T09:43:53;1.00;1.00;0.00
74086;PMS7003;62445;48.406;-4.518;2023-08-06T09:46:19;1.00;1.00;1.00
74086;PMS7003;62445;48.406;-4.518;2023-08-06T09:48:45;0.00;0.00;0.00
74086;PMS7003;62445;48.406;-4.518;2023-08-06T09:51:11;0.75;0.50;0.00
74086;PMS7003;62445;48.406;-4.518;2023-08-06T09:53:38;0.00;0.00;0.00
74086;PMS7003;62445;48.406;-4.518;2023-08-06T09:56:05;0.00;0.00;0.00
74086;PMS7003;62445;48.406;-4.518;2023-08-06T09:58:32;0.75;0.75;0.75
74086;PMS7003;62445;48.406;-4.518;2023-08-06T10:00:58;1.00;1.00;0.00
74086;PMS7003;62445;48.406;-4.518;2023-08-06T10:03:25;1.00;1.00;1.00
74086;PMS7003;62445;48.406;-4.518;2023-08-06T10:05:52;1.00;0.25;0.00
74086;PMS7003;62445;48.406;-4.518;2023-08-06T10:08:20;1.75;1.75;1.00
74086;PMS7003;62445;48.406;-4.518;2023-08-06T10:10:45;0.75;0.75;0.50
74086;PMS7003;62445;48.406;-4.518;2023-08-06T10:13:11;0.25;0.25;0.00
74086;PMS7003;62445;48.406;-4.518;2023-08-06T10:15:38;2.75;1.00;1.00
74086;PMS7003;62445;48.406;-4.518;2023-08-06T10:18:04;1.75;1.00;1.00
74086;PMS7003;62445;48.406;-4.518;2023-08-06T10:20:34;1.50;1.25;1.00
74086;PMS7003;62445;48.406;-4.518;2023-08-06T10:23:00;3.00;1.00;1.00
74086;PMS7003;62445;48.406;-4.518;2023-08-06T10:25:31;2.25;1.75;1.25
74086;PMS7003;62445;48.406;-4.518;2023-08-06T10:27:58;1.00;1.00;1.00
74086;PMS7003;62445;48.406;-4.518;2023-08-06T10:30:28;1.25;0.25;0.25
74086;PMS7003;62445;48.406;-4.518;2023-08-06T10:32:58;0.25;0.00;0.00
74086;PMS7003;62445;48.406;-4.518;2023-08-06T10:41:03;0.50;0.50;0.00
74086;PMS7003;62445;48.406;-4.518;2023-08-06T10:43:29;1.00;1.00;1.00
74086;PMS7003;62445;48.406;-4.518;2023-08-06T10:45:58;0.25;0.00;0.00
74086;PMS7003;62445;48.406;-4.518;2023-08-06T10:48:30;1.00;0.00;0.00
74086;PMS7003;62445;48.406;-4.518;2023-08-06T10:51:01;2.00;1.00;1.00
74086;PMS7003;62445;48.406;-4.518;2023-08-06T10:53:27;0.00;0.00;0.00
74086;PMS7003;62445;48.406;-4.518;2023-08-06T10:55:52;0.00;0.00;0.00
74086;PMS7003;62445;48.406;-4.518;2023-08-06T10:58:17;0.00;0.00;0.00
74086;PMS7003;62445;48.406;-4.518;2023-08-06T11:00:43;0.00;0.00;0.00
74086;PMS7003;62445;48.406;-4.518;2023-08-06T11:03:09;1.75;0.25;0.00
74086;PMS7003;62445;48.406;-4.518;2023-08-06T11:05:35;1.00;1.00;0.00
74086;PMS7003;62445;48.406;-4.518;2023-08-06T11:08:01;1.00;1.00;0.75
74086;PMS7003;62445;48.406;-4.518;2023-08-06T11:10:26;2.00;0.50;0.50
74086;PMS7003;62445;48.406;-4.518;2023-08-06T11:12:52;2.00;1.00;0.00
74086;PMS7003;62445;48.406;-4.518;2023-08-06T11:15:19;0.00;0.00;0.00
74086;PMS7003;62445;48.406;-4.518;2023-08-06T11:17:45;0.25;0.25;0.00
74086;PMS7003;62445;48.406;-4.518;2023-08-06T11:20:11;1.00;0.00;0.00
74086;PMS7003;62445;48.406;-4.518;2023-08-06T11:22:36;0.00;0.00;0.00
74086;PMS7003;62445;48.406;-4.518;2023-08-06T11:25:02;0.75;0.50;0.00
74086;PMS7003;62445;48.406;-4.518;2023-08-06T11:27:28;0.00;0.00;0.00
74086;PMS7003;62445;48.406;-4.518;2023-08-06T11:29:54;0.00;0.00;0.00
74086;PMS7003;62445;48.406;-4.518;2023-08-06T11:32:19;0.00;0.00;0.00
74086;PMS7003;62445;48.406;-4.518;2023-08-06T11:34:45;2.00;2.00;1.00
74086;PMS7003;62445;48.406;-4.518;2023-08-06T11:37:10;1.00;1.00;1.00
74086;PMS7003;62445;48.406;-4.518;2023-08-06T11:39:36;0.25;0.25;0.25
74086;PMS7003;62445;48.406;-4.518;2023-08-06T11:42:04;0.00;0.00;0.00
74086;PMS7003;62445;48.406;-4.518;2023-08-06T11:44:34;1.00;0.75;0.75
74086;PMS7003;62445;48.406;-4.518;2023-08-06T11:47:01;2.00;0.50;0.50
74086;PMS7003;62445;48.406;-4.518;2023-08-06T11:49:48;1.00;0.00;0.00
74086;PMS7003;62445;48.406;-4.518;2023-08-06T11:52:15;1.25;1.00;0.25
74086;PMS7003;62445;48.406;-4.518;2023-08-06T11:54:44;0.50;0.50;0.25
74086;PMS7003;62445;48.406;-4.518;2023-08-06T11:57:24;1.00;0.00;0.00
74086;PMS7003;62445;48.406;-4.518;2023-08-06T11:59:49;0.00;0.00;0.00
74086;PMS7003;62445;48.406;-4.518;2023-08-06T12:02:15;0.75;0.75;0.75
74086;PMS7003;62445;48.406;-4.518;2023-08-06T12:05:03;0.00;0.00;0.00
74086;PMS7003;62445;48.406;-4.518;2023-08-06T12:07:30;0.25;0.25;0.00
74086;PMS7003;62445;48.406;-4.518;2023-08-06T12:09:57;0.25;0.25;0.00
74086;PMS7003;62445;48.406;-4.518;2023-08-06T12:12:23;2.00;1.25;1.00
74086;PMS7003;62445;48.406;-4.518;2023-08-06T12:14:49;0.00;0.00;0.00
74086;PMS7003;62445;48.406;-4.518;2023-08-06T12:17:14;2.50;0.00;0.00
74086;PMS7003;62445;48.406;-4.518;2023-08-06T12:19:40;0.00;0.00;0.00
74086;PMS7003;62445;48.406;-4.518;2023-08-06T12:22:05;0.00;0.00;0.00
74086;PMS7003;62445;48.406;-4.518;2023-08-06T12:24:31;0.00;0.00;0.00
74086;PMS7003;62445;48.406;-4.518;2023-08-06T12:26:59;1.50;1.50;1.00
74086;PMS7003;62445;48.406;-4.518;2023-08-06T12:29:27;0.00;0.00;0.00
74086;PMS7003;62445;48.406;-4.518;2023-08-06T12:31:53;1.00;0.00;0.00
74086;PMS7003;62445;48.406;-4.518;2023-08-06T12:34:18;0.00;0.00;0.00
74086;PMS7003;62445;48.406;-4.518;2023-08-06T12:36:44;0.00;0.00;0.00
74086;PMS7003;62445;48.406;-4.518;2023-08-06T12:39:09;2.00;1.00;1.00
74086;PMS7003;62445;48.406;-4.518;2023-08-06T12:41:35;0.75;0.75;0.00
74086;PMS7003;62445;48.406;-4.518;2023-08-06T12:44:01;1.00;1.00;1.00
74086;PMS7003;62445;48.406;-4.518;2023-08-06T12:46:26;0.00;0.00;0.00
74086;PMS7003;62445;48.406;-4.518;2023-08-06T12:48:51;1.00;1.00;1.00
74086;PMS7003;62445;48.406;-4.518;2023-08-06T12:51:17;1.00;1.00;1.00
74086;PMS7003;62445;48.406;-4.518;2023-08-06T12:53:42;1.00;1.00;1.00
74086;PMS7003;62445;48.406;-4.518;2023-08-06T12:56:08;0.75;0.75;0.25
74086;PMS7003;62445;48.406;-4.518;2023-08-06T12:58:33;0.75;0.75;0.25
74086;PMS7003;62445;48.406;-4.518;2023-08-06T13:00:59;0.75;0.75;0.75
74086;PMS7003;62445;48.406;-4.518;2023-08-06T13:03:24;1.00;1.00;0.00
74086;PMS7003;62445;48.406;-4.518;2023-08-06T13:05:49;1.75;1.75;1.00
74086;PMS7003;62445;48.406;-4.518;2023-08-06T13:08:15;1.00;1.00;0.00
74086;PMS7003;62445;48.406;-4.518;2023-08-06T13:10:40;0.00;0.00;0.00
74086;PMS7003;62445;48.406;-4.518;2023-08-06T13:13:06;1.00;1.00;0.50
74086;PMS7003;62445;48.406;-4.518;2023-08-06T13:15:31;1.00;1.00;1.00
74086;PMS7003;62445;48.406;-4.518;2023-08-06T13:17:57;0.75;0.75;0.00
74086;PMS7003;62445;48.406;-4.518;2023-08-06T13:20:22;0.75;0.75;0.50
74086;PMS7003;62445;48.406;-4.518;2023-08-06T13:22:48;0.00;0.00;0.00
74086;PMS7003;62445;48.406;-4.518;2023-08-06T13:25:15;1.25;0.25;0.00
74086;PMS7003;62445;48.406;-4.518;2023-08-06T13:27:42;1.00;0.00;0.00
74086;PMS7003;62445;48.406;-4.518;2023-08-06T13:30:09;1.00;1.00;1.00
74086;PMS7003;62445;48.406;-4.518;2023-08-06T13:32:35;2.75;1.00;1.00
74086;PMS7003;62445;48.406;-4.518;2023-08-06T13:35:01;0.50;0.50;0.50
74086;PMS7003;62445;48.406;-4.518;2023-08-06T13:37:30;0.25;0.25;0.00
74086;PMS7003;62445;48.406;-4.518;2023-08-06T13:39:55;0.75;0.75;0.50
74086;PMS7003;62445;48.406;-4.518;2023-08-06T13:42:21;0.50;0.25;0.00
74086;PMS7003;62445;48.406;-4.518;2023-08-06T13:44:47;0.75;0.75;0.25
74086;PMS7003;62445;48.406;-4.518;2023-08-06T13:47:12;0.00;0.00;0.00
74086;PMS7003;62445;48.406;-4.518;2023-08-06T13:49:38;1.75;1.75;1.00
74086;PMS7003;62445;48.406;-4.518;2023-08-06T13:52:03;0.00;0.00;0.00
74086;PMS7003;62445;48.406;-4.518;2023-08-06T13:54:29;1.00;1.00;1.00
74086;PMS7003;62445;48.406;-4.518;2023-08-06T13:56:54;2.00;0.00;0.00
74086;PMS7003;62445;48.406;-4.518;2023-08-06T13:59:20;1.50;1.00;0.75
74086;PMS7003;62445;48.406;-4.518;2023-08-06T14:01:45;1.00;1.00;1.00
74086;PMS7003;62445;48.406;-4.518;2023-08-06T14:04:12;2.25;0.75;0.50
74086;PMS7003;62445;48.406;-4.518;2023-08-06T14:06:37;0.25;0.25;0.00
74086;PMS7003;62445;48.406;-4.518;2023-08-06T14:09:03;1.00;1.00;1.00
74086;PMS7003;62445;48.406;-4.518;2023-08-06T14:11:28;0.00;0.00;0.00
74086;PMS7003;62445;48.406;-4.518;2023-08-06T14:13:54;2.00;1.00;1.00
74086;PMS7003;62445;48.406;-4.518;2023-08-06T14:16:19;1.25;1.00;1.00